createdAt,value
2022-11-22T00:01:40.842Z,99383.34
2022-11-22T00:04:07.538Z,99374.59
2022-11-22T00:06:34.359Z,99374.00
2022-11-22T00:09:01.020Z,99374.03
2022-11-22T00:11:27.766Z,99368.06
2022-11-22T00:13:54.516Z,99367.94
2022-11-22T00:16:21.192Z,99361.03
2022-11-22T00:18:47.897Z,99369.75
2022-11-22T00:21:14.517Z,99363.66
2022-11-22T00:23:41.244Z,99366.38
2022-11-22T00:26:12.285Z,99378.53
2022-11-22T00:28:39.908Z,99379.41
2022-11-22T00:31:06.525Z,99375.00
2022-11-22T00:33:33.608Z,99380.16
2022-11-22T00:36:00.628Z,99379.12
2022-11-22T00:38:27.396Z,99368.63
2022-11-22T00:40:54.577Z,99374.00
2022-11-22T00:43:21.486Z,99374.72
2022-11-22T00:45:48.257Z,99373.19
2022-11-22T00:48:15.878Z,99366.09
2022-11-22T00:50:42.686Z,99361.69
2022-11-22T00:53:09.787Z,99367.09
2022-11-22T00:55:36.481Z,99355.81
2022-11-22T00:58:03.497Z,99360.16
2022-11-22T01:00:30.194Z,99362.78
2022-11-22T01:02:56.918Z,99355.69
2022-11-22T01:05:23.707Z,99357.62
2022-11-22T01:07:50.482Z,99354.97
2022-11-22T01:10:17.143Z,99358.28
2022-11-22T01:12:43.831Z,99368.94
2022-11-22T01:15:11.159Z,99362.75
2022-11-22T01:17:37.810Z,99355.03
2022-11-22T01:20:05.025Z,99350.75
2022-11-22T01:22:31.704Z,99344.69
2022-11-22T01:24:58.455Z,99349.88
2022-11-22T01:27:25.074Z,99334.25
2022-11-22T01:29:51.774Z,99324.66
2022-11-22T01:32:18.466Z,99336.03
2022-11-22T01:34:45.168Z,99329.06
2022-11-22T01:37:11.785Z,99325.59
2022-11-22T01:39:39.922Z,99322.13
2022-11-22T01:42:06.656Z,99322.13
2022-11-22T01:44:33.840Z,99340.38
2022-11-22T01:47:06.466Z,99337.75
2022-11-22T01:49:40.729Z,99331.66
2022-11-22T01:52:09.064Z,99328.19
2022-11-22T01:54:38.692Z,99326.50
2022-11-22T01:57:08.328Z,99321.25
2022-11-22T01:59:37.334Z,99322.09
2022-11-22T02:02:04.563Z,99316.94
2022-11-22T02:04:32.751Z,99325.59
2022-11-22T02:07:07.557Z,99322.13
2022-11-22T02:09:34.713Z,99316.94
2022-11-22T02:12:02.910Z,99317.78
2022-11-22T02:14:30.327Z,99315.19
2022-11-22T02:16:57.275Z,99313.44
2022-11-22T02:19:30.799Z,99310.81
2022-11-22T02:22:00.842Z,99309.88
2022-11-22T02:24:32.072Z,99316.72
2022-11-22T02:26:58.720Z,99306.97
2022-11-22T02:29:25.677Z,99317.22
2022-11-22T02:31:52.276Z,99312.72
2022-11-22T02:34:19.009Z,99309.97
2022-11-22T02:36:50.596Z,99311.94
2022-11-22T02:39:19.436Z,99309.00
2022-11-22T02:41:46.289Z,99312.47
2022-11-22T02:44:13.742Z,99315.28
2022-11-22T02:46:48.317Z,99312.66
2022-11-22T02:49:16.688Z,99316.78
2022-11-22T02:51:43.338Z,99308.56
2022-11-22T02:54:10.135Z,99308.22
2022-11-22T02:56:36.847Z,99294.13
2022-11-22T02:59:03.505Z,99292.09
2022-11-22T03:01:30.628Z,99294.72
2022-11-22T03:03:57.308Z,99288.38
2022-11-22T03:06:24.085Z,99284.91
2022-11-22T03:08:55.905Z,99280.88
2022-11-22T03:11:23.368Z,99284.22
2022-11-22T03:13:50.050Z,99276.63
2022-11-22T03:16:16.700Z,99278.41
2022-11-22T03:18:43.382Z,99285.06
2022-11-22T03:21:10.691Z,99282.81
2022-11-22T03:23:37.629Z,99277.69
2022-11-22T03:26:10.959Z,99272.47
2022-11-22T03:28:37.663Z,99265.62
2022-11-22T03:31:07.644Z,99262.94
2022-11-22T03:33:34.990Z,99251.72
2022-11-22T03:36:01.726Z,99254.25
2022-11-22T03:38:28.566Z,99256.94
2022-11-22T03:40:55.579Z,99255.13
2022-11-22T03:43:22.521Z,99238.75
2022-11-22T03:46:14.212Z,99235.34
2022-11-22T03:48:41.499Z,99243.06
2022-11-22T03:51:08.437Z,99248.22
2022-11-22T03:53:35.167Z,99244.00
2022-11-22T03:56:03.226Z,99234.38
2022-11-22T03:58:30.168Z,99233.50
2022-11-22T04:01:01.824Z,99229.09
2022-11-22T04:03:31.342Z,99229.19
2022-11-22T04:06:03.888Z,99225.84
2022-11-22T04:08:30.718Z,99224.88
2022-11-22T04:11:01.640Z,99226.53
2022-11-22T04:13:48.401Z,99215.34
2022-11-22T04:16:19.578Z,99212.69
2022-11-22T04:18:46.337Z,99207.56
2022-11-22T04:21:36.758Z,99203.06
2022-11-22T04:24:28.348Z,99216.03
2022-11-22T04:26:55.446Z,99225.50
2022-11-22T04:29:22.504Z,99220.25
2022-11-22T04:32:08.332Z,99216.72
2022-11-22T04:34:35.095Z,99216.91
2022-11-22T04:37:01.924Z,99222.09
2022-11-22T04:39:29.148Z,99225.41
2022-11-22T04:42:15.502Z,99222.69
2022-11-22T04:44:42.924Z,99216.81
2022-11-22T04:47:10.185Z,99216.84
2022-11-22T04:49:37.059Z,99220.25
2022-11-22T04:52:22.646Z,99210.84
2022-11-22T04:54:49.315Z,99210.09
2022-11-22T04:57:16.135Z,99215.25
2022-11-22T04:59:42.820Z,99215.31
2022-11-22T05:02:09.581Z,99198.00
2022-11-22T05:04:36.481Z,99195.44
2022-11-22T05:07:03.400Z,99192.00
2022-11-22T05:09:30.415Z,99187.53
2022-11-22T05:11:57.434Z,99194.59
2022-11-22T05:14:24.125Z,99184.03
2022-11-22T05:16:50.842Z,99187.41
2022-11-22T05:19:17.547Z,99190.72
2022-11-22T05:21:44.216Z,99188.97
2022-11-22T05:24:10.948Z,99189.62
2022-11-22T05:26:37.703Z,99191.56
2022-11-22T05:29:08.754Z,99183.78
2022-11-22T05:31:36.469Z,99181.19
2022-11-22T05:34:04.114Z,99188.97
2022-11-22T05:36:32.061Z,99167.97
2022-11-22T05:39:08.394Z,99165.59
2022-11-22T05:41:56.024Z,99164.00
2022-11-22T05:44:24.208Z,99164.00
2022-11-22T05:46:50.880Z,99164.75
2022-11-22T05:49:17.821Z,99158.91
2022-11-22T05:51:44.937Z,99163.84
2022-11-22T05:54:11.907Z,99153.66
2022-11-22T05:56:38.802Z,99159.31
2022-11-22T05:59:05.720Z,99155.84
2022-11-22T06:01:32.394Z,99158.28
2022-11-22T06:03:59.049Z,99167.22
2022-11-22T06:06:25.867Z,99155.91
2022-11-22T06:08:52.576Z,99162.87
2022-11-22T06:11:19.226Z,99164.59
2022-11-22T06:13:46.899Z,99173.25
2022-11-22T06:16:14.011Z,99177.91
2022-11-22T06:18:40.799Z,99170.72
2022-11-22T06:21:26.058Z,99177.72
2022-11-22T06:23:56.423Z,99184.66
2022-11-22T06:26:23.948Z,99177.72
2022-11-22T06:28:51.257Z,99177.75
2022-11-22T06:31:38.035Z,99178.03
2022-11-22T06:34:25.947Z,99170.19
2022-11-22T06:37:14.874Z,99171.00
2022-11-22T06:39:47.030Z,99172.91
2022-11-22T06:42:13.990Z,99162.50
2022-11-22T06:44:40.777Z,99159.78
2022-11-22T06:47:07.911Z,99167.53
2022-11-22T06:49:35.673Z,99170.25
2022-11-22T06:52:02.632Z,99172.00
2022-11-22T06:54:33.931Z,99173.75
2022-11-22T06:57:00.909Z,99174.53
2022-11-22T06:59:28.310Z,99183.25
2022-11-22T07:02:02.930Z,99184.13
2022-11-22T07:04:33.503Z,99177.06
2022-11-22T07:07:00.318Z,99184.84
2022-11-22T07:09:40.680Z,99185.72
2022-11-22T07:12:07.908Z,99184.13
2022-11-22T07:14:34.630Z,99178.06
2022-11-22T07:17:01.426Z,99181.41
2022-11-22T07:19:36.662Z,99190.22
2022-11-22T07:22:03.425Z,99197.16
2022-11-22T07:24:30.692Z,99193.69
2022-11-22T07:26:57.464Z,99191.94
2022-11-22T07:29:25.362Z,99178.00
2022-11-22T07:31:56.176Z,99182.44
2022-11-22T07:34:26.224Z,99194.41
2022-11-22T07:37:12.957Z,99178.66
2022-11-22T07:39:41.926Z,99170.94
2022-11-22T07:42:08.744Z,99165.78
2022-11-22T07:44:35.865Z,99176.16
2022-11-22T07:47:03.408Z,99164.69
2022-11-22T07:49:34.463Z,99155.16
2022-11-22T07:52:01.327Z,99162.22
2022-11-22T07:54:33.578Z,99171.47
2022-11-22T07:57:00.351Z,99174.16
2022-11-22T07:59:27.884Z,99168.69
2022-11-22T08:01:55.700Z,99180.03
2022-11-22T08:04:22.637Z,99164.22
2022-11-22T08:06:49.290Z,99157.97
2022-11-22T08:09:15.968Z,99157.00
2022-11-22T08:11:42.632Z,99157.63
2022-11-22T08:14:09.320Z,99155.84
2022-11-22T08:16:35.973Z,99155.81
2022-11-22T08:19:02.765Z,99159.78
2022-11-22T08:21:29.964Z,99167.81
2022-11-22T08:23:59.888Z,99179.09
2022-11-22T08:26:26.948Z,99193.47
2022-11-22T08:28:54.280Z,99176.38
2022-11-22T08:31:21.101Z,99178.00
2022-11-22T08:33:48.725Z,99176.78
2022-11-22T08:36:15.651Z,99177.41
2022-11-22T08:38:42.429Z,99166.78
2022-11-22T08:41:09.102Z,99181.25
2022-11-22T08:43:35.998Z,99189.78
2022-11-22T08:46:03.135Z,99181.91
2022-11-22T08:48:30.769Z,99175.94
2022-11-22T08:50:59.193Z,99170.84
2022-11-22T08:53:26.385Z,99167.56
2022-11-22T08:55:53.579Z,99164.09
2022-11-22T08:58:22.865Z,99158.75
2022-11-22T09:00:49.712Z,99152.25
2022-11-22T09:03:16.407Z,99161.56
2022-11-22T09:08:32.801Z,99148.16
2022-11-22T09:11:04.188Z,99154.97
2022-11-22T09:13:30.869Z,99145.63
2022-11-22T09:16:05.396Z,99144.66
2022-11-22T09:18:32.102Z,99140.25
2022-11-22T09:20:59.591Z,99148.63
2022-11-22T09:23:26.583Z,99146.63
2022-11-22T09:26:00.286Z,99143.09
2022-11-22T09:28:27.751Z,99145.78
2022-11-22T09:31:01.690Z,99153.53
2022-11-22T09:33:29.272Z,99135.84
2022-11-22T09:36:00.525Z,99114.28
2022-11-22T09:38:27.542Z,99117.16
2022-11-22T09:40:54.208Z,99118.78
2022-11-22T09:43:20.851Z,99117.97
2022-11-22T09:45:54.799Z,99112.06
2022-11-22T09:48:24.501Z,99100.47
2022-11-22T09:50:54.370Z,99087.66
2022-11-22T09:53:25.505Z,99083.03
2022-11-22T09:55:54.203Z,99075.66
2022-11-22T09:58:39.400Z,99063.06
2022-11-22T10:01:12.059Z,99059.94
2022-11-22T10:03:52.672Z,99061.75
2022-11-22T10:06:32.316Z,99057.63
2022-11-22T10:09:08.229Z,99041.16
2022-11-22T10:11:55.141Z,99041.22
2022-11-22T10:14:40.724Z,99030.84
2022-11-22T10:17:20.000Z,99019.81
2022-11-22T10:20:04.961Z,99020.44
2022-11-22T10:22:32.861Z,99021.06
2022-11-22T10:25:00.489Z,99011.72
2022-11-22T10:27:32.057Z,99008.38
2022-11-22T10:30:14.318Z,99009.41
2022-11-22T10:32:45.430Z,98999.06
2022-11-22T10:35:12.106Z,98993.06
2022-11-22T10:37:39.375Z,98988.66
2022-11-22T10:40:09.261Z,98982.06
2022-11-22T10:42:54.858Z,98976.31
2022-11-22T10:45:21.479Z,98968.44
2022-11-22T10:47:57.896Z,98962.25
2022-11-22T10:50:43.275Z,98958.75
2022-11-22T10:53:19.130Z,98967.72
2022-11-22T10:56:09.401Z,98964.06
2022-11-22T10:58:42.358Z,98958.03
2022-11-22T11:01:15.700Z,98962.44
2022-11-22T11:03:44.516Z,98945.31
2022-11-22T11:06:26.527Z,98952.03
2022-11-22T11:11:54.979Z,98945.16
2022-11-22T11:14:21.911Z,98952.09
2022-11-22T11:16:49.430Z,98940.03
2022-11-22T11:19:24.727Z,98937.84
2022-11-22T11:21:58.673Z,98923.28
2022-11-22T11:24:29.186Z,98931.09
2022-11-22T11:27:11.859Z,98927.44
2022-11-22T11:29:43.451Z,98918.25
2022-11-22T11:32:12.645Z,98914.00
2022-11-22T11:34:42.736Z,98913.91
2022-11-22T11:37:17.441Z,98923.41
2022-11-22T11:39:48.300Z,98914.81
2022-11-22T11:42:31.731Z,98924.19
2022-11-22T11:45:18.591Z,98908.69
2022-11-22T11:47:45.649Z,98909.50
2022-11-22T11:50:31.856Z,98910.37
2022-11-22T11:53:07.059Z,98906.62
2022-11-22T11:55:34.954Z,98891.56
2022-11-22T11:58:03.773Z,98894.59
2022-11-22T12:00:39.153Z,98903.78
2022-11-22T12:03:07.608Z,98902.75
2022-11-22T12:05:35.449Z,98895.59
2022-11-22T12:08:02.381Z,98894.78
2022-11-22T12:10:41.531Z,98879.06
2022-11-22T12:13:28.100Z,98892.59
2022-11-22T12:15:56.742Z,98883.81
2022-11-22T12:18:39.336Z,98879.69
2022-11-22T12:21:13.271Z,98894.03
2022-11-22T12:23:50.709Z,98886.19
2022-11-22T12:26:18.100Z,98889.97
2022-11-22T12:28:44.982Z,98888.94
2022-11-22T12:31:29.922Z,98876.47
2022-11-22T12:33:59.090Z,98880.16
2022-11-22T12:36:35.057Z,98869.12
2022-11-22T12:39:03.148Z,98867.34
2022-11-22T12:41:32.440Z,98866.94
2022-11-22T12:44:03.810Z,98866.22
2022-11-22T12:46:39.721Z,98860.19
2022-11-22T12:49:24.652Z,98857.13
2022-11-22T12:51:51.373Z,98860.72
2022-11-22T12:54:21.946Z,98849.28
2022-11-22T12:56:57.231Z,98848.88
2022-11-22T12:59:36.500Z,98838.06
2022-11-22T13:02:26.850Z,98840.91
2022-11-22T13:05:01.981Z,98850.75
2022-11-22T13:07:34.266Z,98845.94
2022-11-22T13:10:09.594Z,98839.34
2022-11-22T13:12:38.460Z,98837.50
2022-11-22T13:15:05.448Z,98842.94
2022-11-22T13:17:36.512Z,98847.06
2022-11-22T13:20:06.421Z,98858.37
2022-11-22T13:22:36.016Z,98853.31
2022-11-22T13:25:16.811Z,98860.91
2022-11-22T13:27:45.458Z,98855.25
2022-11-22T13:30:20.377Z,98847.09
2022-11-22T13:32:49.520Z,98849.78
2022-11-22T13:35:16.170Z,98851.34
2022-11-22T13:37:47.569Z,98844.19
2022-11-22T13:40:17.601Z,98847.28
2022-11-22T13:42:44.501Z,98839.34
2022-11-22T13:45:20.895Z,98848.22
2022-11-22T13:47:47.834Z,98852.53
2022-11-22T13:50:33.417Z,98845.22
2022-11-22T13:53:15.914Z,98846.38
2022-11-22T13:55:43.117Z,98839.31
2022-11-22T13:58:18.268Z,98842.59
2022-11-22T14:00:45.133Z,98845.78
2022-11-22T14:03:19.047Z,98846.44
2022-11-22T14:05:50.475Z,98846.47
2022-11-22T14:08:35.551Z,98851.47
2022-11-22T14:11:02.249Z,98854.34
2022-11-22T14:13:39.212Z,98851.69
2022-11-22T14:16:12.001Z,98856.41
2022-11-22T14:18:52.266Z,98851.78
2022-11-22T14:21:37.902Z,98844.94
2022-11-22T14:24:14.057Z,98850.75
2022-11-22T14:26:59.231Z,98851.13
2022-11-22T14:29:50.743Z,98841.81
2022-11-22T14:32:21.815Z,98850.16
2022-11-22T14:35:03.914Z,98850.78
2022-11-22T14:37:34.402Z,98843.03
2022-11-22T14:40:03.887Z,98836.97
2022-11-22T14:42:47.723Z,98846.12
2022-11-22T14:45:27.271Z,98841.94
2022-11-22T14:47:54.069Z,98846.69
2022-11-22T14:50:29.249Z,98846.19
2022-11-22T14:52:57.660Z,98844.13
2022-11-22T14:55:26.665Z,98832.19
2022-11-22T14:58:04.498Z,98836.47
2022-11-22T15:01:02.844Z,98836.56
2022-11-22T15:03:48.439Z,98849.47
2022-11-22T15:09:14.437Z,98842.87
2022-11-22T15:09:53.287Z,98836.84
2022-11-22T15:12:06.893Z,98836.56
2022-11-22T15:14:52.705Z,98833.06
2022-11-22T15:57:38.001Z,98774.72
2022-11-22T16:00:19.265Z,98778.53
2022-11-22T16:02:49.329Z,98766.50
2022-11-22T16:06:06.705Z,98771.34
2022-11-22T16:08:13.533Z,98765.19
2022-11-22T16:10:43.009Z,98758.31
2022-11-22T16:13:14.151Z,98782.84
2022-11-22T16:15:41.138Z,98783.47
2022-11-22T16:18:10.789Z,98777.06
2022-11-22T16:20:41.388Z,98779.09
2022-11-22T16:23:12.085Z,98769.88
2022-11-22T16:25:39.891Z,98773.03
2022-11-22T16:28:18.826Z,98759.91
2022-11-22T16:30:47.428Z,98769.91
2022-11-22T16:33:34.740Z,98765.84
2022-11-22T16:36:20.832Z,98765.13
2022-11-22T16:38:47.973Z,98763.44
2022-11-22T16:41:36.434Z,98772.19
2022-11-22T16:44:22.121Z,98764.19
2022-11-22T16:46:49.888Z,98766.34
2022-11-22T16:49:18.976Z,98753.34
2022-11-22T16:51:46.898Z,98748.16
2022-11-22T16:54:21.153Z,98750.06
2022-11-22T16:56:50.141Z,98741.63
2022-11-22T16:59:21.498Z,98744.81
2022-11-22T17:01:48.516Z,98748.28
2022-11-22T17:04:21.745Z,98760.81
2022-11-22T17:06:49.018Z,98748.41
2022-11-22T17:09:21.334Z,98751.19
2022-11-22T17:11:48.137Z,98755.97
2022-11-22T17:14:16.226Z,98754.41
2022-11-22T17:16:43.392Z,98738.13
2022-11-22T17:19:24.210Z,98746.88
2022-11-22T17:21:57.135Z,98744.78
2022-11-22T17:24:24.171Z,98739.59
2022-11-22T17:26:50.955Z,98731.94
2022-11-22T17:29:48.802Z,98735.87
2022-11-22T17:32:05.188Z,98738.38
2022-11-22T17:34:32.320Z,98730.00
2022-11-22T17:36:59.282Z,98727.38
2022-11-22T17:39:26.358Z,98722.78
2022-11-22T17:41:53.049Z,98726.69
2022-11-22T17:44:19.841Z,98714.97
2022-11-22T17:46:47.492Z,98711.06
2022-11-22T17:49:16.183Z,98715.59
2022-11-22T17:51:43.747Z,98718.69
2022-11-22T17:54:10.535Z,98713.16
2022-11-22T17:56:39.200Z,98723.97
2022-11-22T17:59:06.511Z,98701.38
2022-11-22T18:01:33.329Z,98712.63
2022-11-22T18:04:00.104Z,98701.00
2022-11-22T18:06:27.277Z,98703.63
2022-11-22T18:08:54.103Z,98710.28
2022-11-22T18:11:21.087Z,98679.81
2022-11-22T18:13:47.942Z,98705.16
2022-11-22T18:16:18.748Z,98693.22
2022-11-22T18:19:01.110Z,98696.91
2022-11-22T18:21:29.790Z,98700.44
2022-11-22T18:24:00.555Z,98697.72
2022-11-22T18:26:43.121Z,98706.16
2022-11-22T18:29:41.073Z,98701.06
2022-11-22T18:31:57.572Z,98702.97
2022-11-22T18:34:24.669Z,98702.53
2022-11-22T18:36:57.561Z,98709.41
2022-11-22T18:39:27.709Z,98699.44
2022-11-22T18:41:55.752Z,98702.66
2022-11-22T18:44:22.508Z,98702.00
2022-11-22T18:46:49.523Z,98707.50
2022-11-22T18:49:36.660Z,98703.03
2022-11-22T18:52:04.985Z,98688.56
2022-11-22T18:54:34.228Z,98700.84
2022-11-22T18:57:01.628Z,98686.78
2022-11-22T18:59:28.713Z,98691.97
2022-11-22T19:01:55.957Z,98690.47
2022-11-22T19:04:22.737Z,98693.72
2022-11-22T19:06:49.553Z,98682.75
2022-11-22T19:09:16.657Z,98681.69
2022-11-22T19:11:43.487Z,98679.22
2022-11-22T19:14:10.588Z,98688.75
2022-11-22T19:16:42.224Z,98681.19
2022-11-22T19:19:10.804Z,98671.25
2022-11-22T19:21:37.535Z,98674.78
2022-11-22T19:24:04.696Z,98681.16
2022-11-22T19:26:31.684Z,98683.34
2022-11-22T19:29:00.074Z,98686.69
2022-11-22T19:31:29.611Z,98676.88
2022-11-22T19:33:56.489Z,98677.22
2022-11-22T19:36:44.110Z,98682.72
2022-11-22T19:39:17.499Z,98686.84
2022-11-22T19:41:44.865Z,98693.66
2022-11-22T19:44:31.844Z,98691.66
2022-11-22T19:46:58.648Z,98687.38
2022-11-22T19:49:25.911Z,98697.53
2022-11-22T19:51:52.641Z,98702.81
2022-11-22T19:54:19.477Z,98698.22
2022-11-22T19:56:46.644Z,98696.00
2022-11-22T19:59:16.456Z,98703.66
2022-11-22T20:01:43.273Z,98708.31
2022-11-22T20:04:12.767Z,98704.16
2022-11-22T20:06:40.330Z,98711.38
2022-11-22T20:09:11.246Z,98709.75
2022-11-22T20:11:38.453Z,98707.06
2022-11-22T20:14:05.453Z,98710.47
2022-11-22T20:16:35.087Z,98709.16
2022-11-22T20:19:02.898Z,98713.03
2022-11-22T20:21:31.622Z,98718.81
2022-11-22T20:23:58.907Z,98710.19
2022-11-22T20:26:25.768Z,98713.03
2022-11-22T20:28:56.642Z,98710.91
2022-11-22T20:31:24.057Z,98714.47
2022-11-22T20:33:52.291Z,98721.00
2022-11-22T20:36:19.298Z,98713.22
2022-11-22T20:38:46.877Z,98714.69
2022-11-22T20:41:14.816Z,98713.31
2022-11-22T20:43:41.751Z,98718.63
2022-11-22T20:46:10.337Z,98721.25
2022-11-22T20:48:37.632Z,98722.47
2022-11-22T20:51:06.017Z,98727.94
2022-11-22T20:53:33.152Z,98726.09
2022-11-22T20:55:59.997Z,98723.84
2022-11-22T20:58:27.008Z,98726.22
2022-11-22T21:00:54.159Z,98721.75
2022-11-22T21:03:21.336Z,98728.28
2022-11-22T21:05:52.445Z,98720.03
2022-11-22T21:08:19.614Z,98728.63
2022-11-22T21:10:47.065Z,98730.34
2022-11-22T21:13:13.890Z,98722.69
2022-11-22T21:15:41.941Z,98728.84
2022-11-22T21:18:24.597Z,98728.56
2022-11-22T21:20:54.460Z,98729.41
2022-11-22T21:23:21.497Z,98723.47
2022-11-22T21:26:08.095Z,98734.75
2022-11-22T21:28:40.790Z,98733.28
2022-11-22T21:31:09.805Z,98728.81
2022-11-22T21:33:37.234Z,98724.38
2022-11-22T21:36:24.034Z,98730.88
2022-11-22T21:39:00.311Z,98721.19
2022-11-22T21:41:47.484Z,98735.25
2022-11-22T21:44:15.503Z,98730.41
2022-11-22T21:46:44.038Z,98730.78
2022-11-22T21:49:10.968Z,98745.16
2022-11-22T21:51:37.806Z,98735.63
2022-11-22T21:54:04.670Z,98728.97
2022-11-22T21:56:31.973Z,98732.44
2022-11-22T21:58:58.769Z,98729.81
2022-11-22T22:01:26.446Z,98735.16
2022-11-22T22:03:53.467Z,98734.78
2022-11-22T22:06:20.388Z,98728.34
2022-11-22T22:08:47.081Z,98734.31
2022-11-22T22:11:13.951Z,98732.94
2022-11-22T22:13:40.893Z,98725.63
2022-11-22T22:16:08.518Z,98729.09
2022-11-22T22:18:38.143Z,98737.88
2022-11-22T22:21:06.161Z,98729.66
2022-11-22T22:23:36.522Z,98733.50
2022-11-22T22:26:04.727Z,98732.38
2022-11-22T22:28:35.496Z,98742.44
2022-11-22T22:31:08.393Z,98735.37
2022-11-22T22:33:35.664Z,98744.28
2022-11-22T22:36:05.577Z,98741.22
2022-11-22T22:38:32.500Z,98741.78
2022-11-22T22:41:00.537Z,98733.06
2022-11-22T22:43:31.243Z,98738.69
2022-11-22T22:46:06.229Z,98732.97
2022-11-22T22:48:35.759Z,98741.28
2022-11-22T22:51:11.545Z,98742.09
2022-11-22T22:53:38.517Z,98743.94
2022-11-22T22:56:05.487Z,98736.78
2022-11-22T22:58:32.303Z,98746.38
2022-11-22T23:01:06.490Z,98748.16
2022-11-22T23:03:33.315Z,98752.44
2022-11-22T23:06:03.940Z,98749.19
2022-11-22T23:08:30.707Z,98749.69
2022-11-22T23:11:02.438Z,98753.16
2022-11-22T23:13:29.393Z,98747.19
2022-11-22T23:15:58.889Z,98756.66
2022-11-22T23:18:25.950Z,98753.59
2022-11-22T23:20:52.688Z,98753.06
2022-11-22T23:23:19.438Z,98753.31
2022-11-22T23:25:46.161Z,98755.19
2022-11-22T23:28:12.870Z,98758.66
2022-11-22T23:30:39.620Z,98764.84
2022-11-22T23:33:06.303Z,98762.09
2022-11-22T23:35:36.091Z,98756.72
2022-11-22T23:38:03.096Z,98760.31
2022-11-22T23:40:31.174Z,98762.88
2022-11-22T23:43:01.301Z,98753.16
2022-11-22T23:45:27.932Z,98753.31
2022-11-22T23:47:54.646Z,98763.00
2022-11-22T23:50:21.362Z,98759.50
2022-11-22T23:52:48.019Z,98752.97
2022-11-22T23:55:14.903Z,98748.94
2022-11-22T23:57:42.716Z,98759.37
